sensor_id;sensor_type;location;lat;lon;timestamp;P1;durP1;ratioP1;P2;durP2;ratioP2
19030;SDS011;9648;51.130;13.978;2022-09-17T00:02:21;6.40;;;1.70;;
19030;SDS011;9648;51.130;13.978;2022-09-17T00:04:49;4.38;;;1.35;;
19030;SDS011;9648;51.130;13.978;2022-09-17T00:07:16;5.93;;;1.50;;
19030;SDS011;9648;51.130;13.978;2022-09-17T00:09:43;3.63;;;1.40;;
19030;SDS011;9648;51.130;13.978;2022-09-17T00:12:10;3.67;;;1.30;;
19030;SDS011;9648;51.130;13.978;2022-09-17T00:14:36;4.65;;;1.50;;
19030;SDS011;9648;51.130;13.978;2022-09-17T00:17:05;5.78;;;1.35;;
19030;SDS011;9648;51.130;13.978;2022-09-17T00:19:33;5.13;;;1.35;;
19030;SDS011;9648;51.130;13.978;2022-09-17T00:21:59;3.92;;;1.58;;
19030;SDS011;9648;51.130;13.978;2022-09-17T00:24:26;4.47;;;1.40;;
19030;SDS011;9648;51.130;13.978;2022-09-17T00:26:53;6.90;;;1.75;;
19030;SDS011;9648;51.130;13.978;2022-09-17T00:29:20;5.57;;;1.67;;
19030;SDS011;9648;51.130;13.978;2022-09-17T00:31:46;4.07;;;1.30;;
19030;SDS011;9648;51.130;13.978;2022-09-17T00:34:13;5.30;;;1.50;;
19030;SDS011;9648;51.130;13.978;2022-09-17T00:36:41;6.78;;;1.65;;
19030;SDS011;9648;51.130;13.978;2022-09-17T00:39:08;4.00;;;1.40;;
19030;SDS011;9648;51.130;13.978;2022-09-17T00:41:39;5.30;;;1.45;;
19030;SDS011;9648;51.130;13.978;2022-09-17T00:47:07;3.67;;;1.33;;
19030;SDS011;9648;51.130;13.978;2022-09-17T00:49:38;4.57;;;1.40;;
19030;SDS011;9648;51.130;13.978;2022-09-17T00:52:07;7.25;;;1.60;;
19030;SDS011;9648;51.130;13.978;2022-09-17T00:54:38;5.53;;;1.63;;
19030;SDS011;9648;51.130;13.978;2022-09-17T00:57:07;6.03;;;1.45;;
19030;SDS011;9648;51.130;13.978;2022-09-17T00:59:35;6.30;;;1.20;;
19030;SDS011;9648;51.130;13.978;2022-09-17T01:02:02;6.90;;;1.50;;
19030;SDS011;9648;51.130;13.978;2022-09-17T01:04:30;5.32;;;1.30;;
19030;SDS011;9648;51.130;13.978;2022-09-17T01:06:58;5.18;;;1.42;;
19030;SDS011;9648;51.130;13.978;2022-09-17T01:09:33;4.80;;;1.38;;
19030;SDS011;9648;51.130;13.978;2022-09-17T01:12:18;4.75;;;1.65;;
19030;SDS011;9648;51.130;13.978;2022-09-17T01:14:58;5.32;;;1.60;;
19030;SDS011;9648;51.130;13.978;2022-09-17T01:17:32;6.50;;;1.50;;
19030;SDS011;9648;51.130;13.978;2022-09-17T01:20:23;6.00;;;1.40;;
19030;SDS011;9648;51.130;13.978;2022-09-17T01:26:05;5.20;;;1.60;;
19030;SDS011;9648;51.130;13.978;2022-09-17T01:28:45;5.73;;;1.70;;
19030;SDS011;9648;51.130;13.978;2022-09-17T01:31:29;7.53;;;1.65;;
19030;SDS011;9648;51.130;13.978;2022-09-17T01:34:01;5.13;;;1.48;;
19030;SDS011;9648;51.130;13.978;2022-09-17T01:36:40;4.60;;;1.45;;
19030;SDS011;9648;51.130;13.978;2022-09-17T01:39:16;5.60;;;1.50;;
19030;SDS011;9648;51.130;13.978;2022-09-17T01:41:54;5.82;;;1.70;;
19030;SDS011;9648;51.130;13.978;2022-09-17T01:44:25;5.47;;;1.30;;
19030;SDS011;9648;51.130;13.978;2022-09-17T01:47:00;5.17;;;1.40;;
19030;SDS011;9648;51.130;13.978;2022-09-17T01:49:31;5.30;;;1.30;;
19030;SDS011;9648;51.130;13.978;2022-09-17T01:52:01;5.32;;;1.63;;
19030;SDS011;9648;51.130;13.978;2022-09-17T01:54:29;5.22;;;1.40;;
19030;SDS011;9648;51.130;13.978;2022-09-17T01:57:00;4.90;;;1.60;;
19030;SDS011;9648;51.130;13.978;2022-09-17T01:59:32;7.30;;;1.55;;
19030;SDS011;9648;51.130;13.978;2022-09-17T02:02:05;7.50;;;1.48;;
19030;SDS011;9648;51.130;13.978;2022-09-17T02:04:36;6.80;;;1.37;;
19030;SDS011;9648;51.130;13.978;2022-09-17T02:07:09;4.43;;;1.25;;
19030;SDS011;9648;51.130;13.978;2022-09-17T02:09:41;4.10;;;1.33;;
19030;SDS011;9648;51.130;13.978;2022-09-17T02:12:12;6.30;;;1.23;;
19030;SDS011;9648;51.130;13.978;2022-09-17T02:14:44;7.53;;;1.70;;
19030;SDS011;9648;51.130;13.978;2022-09-17T02:17:18;4.35;;;1.30;;
19030;SDS011;9648;51.130;13.978;2022-09-17T02:19:49;7.65;;;1.65;;
19030;SDS011;9648;51.130;13.978;2022-09-17T02:22:20;4.97;;;1.60;;
19030;SDS011;9648;51.130;13.978;2022-09-17T02:24:51;5.57;;;1.40;;
19030;SDS011;9648;51.130;13.978;2022-09-17T02:27:30;6.97;;;1.50;;
19030;SDS011;9648;51.130;13.978;2022-09-17T02:30:05;4.50;;;1.52;;
19030;SDS011;9648;51.130;13.978;2022-09-17T02:32:34;6.30;;;1.40;;
19030;SDS011;9648;51.130;13.978;2022-09-17T02:35:01;3.83;;;1.17;;
19030;SDS011;9648;51.130;13.978;2022-09-17T02:37:27;4.70;;;1.45;;
19030;SDS011;9648;51.130;13.978;2022-09-17T02:39:54;7.10;;;1.50;;
19030;SDS011;9648;51.130;13.978;2022-09-17T02:42:22;3.03;;;1.33;;
19030;SDS011;9648;51.130;13.978;2022-09-17T02:44:59;3.58;;;1.10;;
19030;SDS011;9648;51.130;13.978;2022-09-17T02:47:46;5.97;;;1.35;;
19030;SDS011;9648;51.130;13.978;2022-09-17T02:50:46;5.22;;;1.38;;
19030;SDS011;9648;51.130;13.978;2022-09-17T02:53:26;4.35;;;1.30;;
19030;SDS011;9648;51.130;13.978;2022-09-17T02:56:03;3.17;;;1.05;;
19030;SDS011;9648;51.130;13.978;2022-09-17T02:58:39;5.78;;;1.38;;
19030;SDS011;9648;51.130;13.978;2022-09-17T03:01:11;5.80;;;1.42;;
19030;SDS011;9648;51.130;13.978;2022-09-17T03:03:47;7.15;;;1.50;;
19030;SDS011;9648;51.130;13.978;2022-09-17T03:06:16;4.55;;;1.20;;
19030;SDS011;9648;51.130;13.978;2022-09-17T03:08:44;7.03;;;1.40;;
19030;SDS011;9648;51.130;13.978;2022-09-17T03:11:11;4.80;;;1.40;;
19030;SDS011;9648;51.130;13.978;2022-09-17T03:13:39;5.50;;;1.27;;
19030;SDS011;9648;51.130;13.978;2022-09-17T03:16:06;4.80;;;1.30;;
19030;SDS011;9648;51.130;13.978;2022-09-17T03:18:33;4.95;;;1.40;;
19030;SDS011;9648;51.130;13.978;2022-09-17T03:21:01;4.57;;;1.13;;
19030;SDS011;9648;51.130;13.978;2022-09-17T03:23:28;4.03;;;1.20;;
19030;SDS011;9648;51.130;13.978;2022-09-17T03:25:54;4.80;;;1.20;;
19030;SDS011;9648;51.130;13.978;2022-09-17T03:28:21;3.33;;;1.23;;
19030;SDS011;9648;51.130;13.978;2022-09-17T03:30:49;5.32;;;1.17;;
19030;SDS011;9648;51.130;13.978;2022-09-17T03:33:16;6.20;;;1.50;;
19030;SDS011;9648;51.130;13.978;2022-09-17T03:35:44;3.92;;;1.20;;
19030;SDS011;9648;51.130;13.978;2022-09-17T03:38:12;5.40;;;1.33;;
19030;SDS011;9648;51.130;13.978;2022-09-17T03:40:39;6.95;;;1.17;;
19030;SDS011;9648;51.130;13.978;2022-09-17T03:43:06;4.22;;;1.10;;
19030;SDS011;9648;51.130;13.978;2022-09-17T03:45:33;9.18;;;1.45;;
19030;SDS011;9648;51.130;13.978;2022-09-17T03:48:00;5.07;;;1.30;;
19030;SDS011;9648;51.130;13.978;2022-09-17T03:50:27;4.63;;;1.20;;
19030;SDS011;9648;51.130;13.978;2022-09-17T03:52:54;4.22;;;1.27;;
19030;SDS011;9648;51.130;13.978;2022-09-17T03:55:22;5.07;;;1.30;;
19030;SDS011;9648;51.130;13.978;2022-09-17T03:57:48;4.97;;;1.40;;
19030;SDS011;9648;51.130;13.978;2022-09-17T04:00:15;3.83;;;1.20;;
19030;SDS011;9648;51.130;13.978;2022-09-17T04:02:42;4.63;;;1.25;;
19030;SDS011;9648;51.130;13.978;2022-09-17T04:05:08;7.00;;;1.20;;
19030;SDS011;9648;51.130;13.978;2022-09-17T04:07:35;3.97;;;1.10;;
19030;SDS011;9648;51.130;13.978;2022-09-17T04:10:02;4.82;;;1.15;;
19030;SDS011;9648;51.130;13.978;2022-09-17T04:12:31;3.83;;;1.13;;
19030;SDS011;9648;51.130;13.978;2022-09-17T04:14:58;4.20;;;1.30;;
19030;SDS011;9648;51.130;13.978;2022-09-17T04:17:25;6.13;;;1.20;;
19030;SDS011;9648;51.130;13.978;2022-09-17T04:19:52;7.82;;;1.33;;
19030;SDS011;9648;51.130;13.978;2022-09-17T04:22:19;4.25;;;1.17;;
19030;SDS011;9648;51.130;13.978;2022-09-17T04:24:46;5.72;;;1.42;;
19030;SDS011;9648;51.130;13.978;2022-09-17T04:27:12;6.18;;;1.38;;
19030;SDS011;9648;51.130;13.978;2022-09-17T04:29:40;3.67;;;1.40;;
19030;SDS011;9648;51.130;13.978;2022-09-17T04:32:07;4.65;;;1.25;;
19030;SDS011;9648;51.130;13.978;2022-09-17T04:34:33;4.20;;;1.20;;
19030;SDS011;9648;51.130;13.978;2022-09-17T04:37:00;4.70;;;1.40;;
19030;SDS011;9648;51.130;13.978;2022-09-17T04:39:27;4.53;;;1.27;;
19030;SDS011;9648;51.130;13.978;2022-09-17T04:41:54;6.18;;;1.40;;
19030;SDS011;9648;51.130;13.978;2022-09-17T04:44:21;4.28;;;1.38;;
19030;SDS011;9648;51.130;13.978;2022-09-17T04:46:49;4.72;;;1.50;;
19030;SDS011;9648;51.130;13.978;2022-09-17T04:49:15;5.70;;;1.50;;
19030;SDS011;9648;51.130;13.978;2022-09-17T04:51:42;4.80;;;1.50;;
19030;SDS011;9648;51.130;13.978;2022-09-17T04:54:09;5.18;;;1.50;;
19030;SDS011;9648;51.130;13.978;2022-09-17T04:56:35;4.38;;;1.40;;
19030;SDS011;9648;51.130;13.978;2022-09-17T04:59:02;5.93;;;1.77;;
19030;SDS011;9648;51.130;13.978;2022-09-17T05:01:28;5.00;;;1.40;;
19030;SDS011;9648;51.130;13.978;2022-09-17T05:03:56;5.20;;;1.67;;
19030;SDS011;9648;51.130;13.978;2022-09-17T05:06:23;4.93;;;1.60;;
19030;SDS011;9648;51.130;13.978;2022-09-17T05:08:50;7.00;;;1.52;;
19030;SDS011;9648;51.130;13.978;2022-09-17T05:11:16;6.15;;;1.58;;
19030;SDS011;9648;51.130;13.978;2022-09-17T05:13:43;4.43;;;1.40;;
19030;SDS011;9648;51.130;13.978;2022-09-17T05:16:09;3.90;;;1.50;;
19030;SDS011;9648;51.130;13.978;2022-09-17T05:18:36;4.07;;;1.60;;
19030;SDS011;9648;51.130;13.978;2022-09-17T05:21:04;5.18;;;1.70;;
19030;SDS011;9648;51.130;13.978;2022-09-17T05:23:31;3.83;;;1.70;;
19030;SDS011;9648;51.130;13.978;2022-09-17T05:25:58;5.30;;;1.70;;
19030;SDS011;9648;51.130;13.978;2022-09-17T05:28:25;3.92;;;1.80;;
19030;SDS011;9648;51.130;13.978;2022-09-17T05:30:52;4.65;;;1.90;;
19030;SDS011;9648;51.130;13.978;2022-09-17T05:33:18;4.28;;;1.80;;
19030;SDS011;9648;51.130;13.978;2022-09-17T05:35:45;4.47;;;2.08;;
19030;SDS011;9648;51.130;13.978;2022-09-17T05:38:13;4.87;;;1.90;;
19030;SDS011;9648;51.130;13.978;2022-09-17T05:40:40;3.23;;;1.90;;
19030;SDS011;9648;51.130;13.978;2022-09-17T05:43:06;4.13;;;2.05;;
19030;SDS011;9648;51.130;13.978;2022-09-17T05:45:35;5.53;;;2.25;;
19030;SDS011;9648;51.130;13.978;2022-09-17T05:48:02;5.88;;;2.13;;
19030;SDS011;9648;51.130;13.978;2022-09-17T05:50:31;5.10;;;2.28;;
19030;SDS011;9648;51.130;13.978;2022-09-17T05:53:01;3.05;;;2.03;;
19030;SDS011;9648;51.130;13.978;2022-09-17T05:55:31;3.33;;;1.83;;
19030;SDS011;9648;51.130;13.978;2022-09-17T05:57:59;5.53;;;2.22;;
19030;SDS011;9648;51.130;13.978;2022-09-17T06:00:25;5.10;;;2.35;;
19030;SDS011;9648;51.130;13.978;2022-09-17T06:02:53;4.27;;;2.40;;
19030;SDS011;9648;51.130;13.978;2022-09-17T06:05:21;5.40;;;2.50;;
19030;SDS011;9648;51.130;13.978;2022-09-17T06:07:48;4.03;;;2.40;;
19030;SDS011;9648;51.130;13.978;2022-09-17T06:10:15;4.93;;;2.92;;
19030;SDS011;9648;51.130;13.978;2022-09-17T06:12:43;4.53;;;2.50;;
19030;SDS011;9648;51.130;13.978;2022-09-17T06:15:10;3.92;;;2.33;;
19030;SDS011;9648;51.130;13.978;2022-09-17T06:17:39;5.15;;;2.58;;
19030;SDS011;9648;51.130;13.978;2022-09-17T06:20:07;5.03;;;2.80;;
19030;SDS011;9648;51.130;13.978;2022-09-17T06:22:34;3.22;;;2.35;;
19030;SDS011;9648;51.130;13.978;2022-09-17T06:25:01;5.82;;;2.50;;
19030;SDS011;9648;51.130;13.978;2022-09-17T06:27:29;3.83;;;2.30;;
19030;SDS011;9648;51.130;13.978;2022-09-17T06:29:58;4.80;;;2.17;;
19030;SDS011;9648;51.130;13.978;2022-09-17T06:32:24;4.47;;;2.20;;
19030;SDS011;9648;51.130;13.978;2022-09-17T06:34:51;4.72;;;2.60;;
19030;SDS011;9648;51.130;13.978;2022-09-17T06:37:19;5.47;;;2.10;;
19030;SDS011;9648;51.130;13.978;2022-09-17T06:39:52;3.80;;;2.05;;
19030;SDS011;9648;51.130;13.978;2022-09-17T06:42:18;2.40;;;1.90;;
19030;SDS011;9648;51.130;13.978;2022-09-17T06:44:45;4.03;;;2.13;;
19030;SDS011;9648;51.130;13.978;2022-09-17T06:47:13;3.95;;;2.60;;
19030;SDS011;9648;51.130;13.978;2022-09-17T06:49:40;3.17;;;2.30;;
19030;SDS011;9648;51.130;13.978;2022-09-17T06:52:06;3.13;;;2.30;;
19030;SDS011;9648;51.130;13.978;2022-09-17T06:54:33;5.18;;;2.55;;
19030;SDS011;9648;51.130;13.978;2022-09-17T06:57:01;3.27;;;2.20;;
19030;SDS011;9648;51.130;13.978;2022-09-17T06:59:27;3.10;;;2.22;;
19030;SDS011;9648;51.130;13.978;2022-09-17T07:01:54;3.00;;;2.30;;
19030;SDS011;9648;51.130;13.978;2022-09-17T07:04:23;3.92;;;2.35;;
19030;SDS011;9648;51.130;13.978;2022-09-17T07:06:49;3.28;;;2.20;;
19030;SDS011;9648;51.130;13.978;2022-09-17T07:09:16;4.78;;;2.05;;
19030;SDS011;9648;51.130;13.978;2022-09-17T07:11:42;2.72;;;1.80;;
19030;SDS011;9648;51.130;13.978;2022-09-17T07:14:09;3.23;;;1.60;;
19030;SDS011;9648;51.130;13.978;2022-09-17T07:16:36;2.10;;;1.52;;
19030;SDS011;9648;51.130;13.978;2022-09-17T07:19:03;2.08;;;1.60;;
19030;SDS011;9648;51.130;13.978;2022-09-17T07:21:32;2.75;;;1.63;;
19030;SDS011;9648;51.130;13.978;2022-09-17T07:23:59;1.70;;;1.30;;
19030;SDS011;9648;51.130;13.978;2022-09-17T07:26:25;2.05;;;1.50;;
19030;SDS011;9648;51.130;13.978;2022-09-17T07:28:52;1.73;;;1.20;;
19030;SDS011;9648;51.130;13.978;2022-09-17T07:31:19;1.53;;;1.10;;
19030;SDS011;9648;51.130;13.978;2022-09-17T07:33:45;1.55;;;1.10;;
19030;SDS011;9648;51.130;13.978;2022-09-17T07:36:13;1.90;;;1.23;;
19030;SDS011;9648;51.130;13.978;2022-09-17T07:38:43;2.08;;;1.20;;
19030;SDS011;9648;51.130;13.978;2022-09-17T07:41:10;2.30;;;1.20;;
19030;SDS011;9648;51.130;13.978;2022-09-17T07:43:38;2.65;;;1.40;;
19030;SDS011;9648;51.130;13.978;2022-09-17T07:46:05;3.80;;;1.60;;
19030;SDS011;9648;51.130;13.978;2022-09-17T07:48:33;4.80;;;1.90;;
19030;SDS011;9648;51.130;13.978;2022-09-17T07:51:00;5.60;;;2.40;;
19030;SDS011;9648;51.130;13.978;2022-09-17T07:53:27;6.25;;;2.55;;
19030;SDS011;9648;51.130;13.978;2022-09-17T07:55:55;6.53;;;2.70;;
19030;SDS011;9648;51.130;13.978;2022-09-17T07:58:26;8.63;;;2.92;;
19030;SDS011;9648;51.130;13.978;2022-09-17T08:00:58;9.77;;;3.20;;
19030;SDS011;9648;51.130;13.978;2022-09-17T08:03:26;6.28;;;2.70;;
19030;SDS011;9648;51.130;13.978;2022-09-17T08:05:53;9.90;;;3.67;;
19030;SDS011;9648;51.130;13.978;2022-09-17T08:08:19;10.35;;;3.97;;
19030;SDS011;9648;51.130;13.978;2022-09-17T08:10:46;12.50;;;4.03;;
19030;SDS011;9648;51.130;13.978;2022-09-17T08:13:14;11.35;;;4.30;;
19030;SDS011;9648;51.130;13.978;2022-09-17T08:15:41;10.15;;;4.35;;
19030;SDS011;9648;51.130;13.978;2022-09-17T08:18:07;10.52;;;4.72;;
19030;SDS011;9648;51.130;13.978;2022-09-17T08:20:34;11.75;;;4.55;;
19030;SDS011;9648;51.130;13.978;2022-09-17T08:23:00;10.93;;;4.70;;
19030;SDS011;9648;51.130;13.978;2022-09-17T08:25:27;8.88;;;4.55;;
19030;SDS011;9648;51.130;13.978;2022-09-17T08:27:54;10.70;;;4.78;;
19030;SDS011;9648;51.130;13.978;2022-09-17T08:30:22;11.37;;;4.50;;
19030;SDS011;9648;51.130;13.978;2022-09-17T08:32:49;11.07;;;4.70;;
19030;SDS011;9648;51.130;13.978;2022-09-17T08:35:16;10.55;;;4.68;;
19030;SDS011;9648;51.130;13.978;2022-09-17T08:37:43;11.23;;;4.80;;
19030;SDS011;9648;51.130;13.978;2022-09-17T08:40:12;11.43;;;4.70;;
19030;SDS011;9648;51.130;13.978;2022-09-17T08:42:45;16.30;;;5.32;;
19030;SDS011;9648;51.130;13.978;2022-09-17T08:45:18;11.53;;;5.40;;
19030;SDS011;9648;51.130;13.978;2022-09-17T08:47:47;13.27;;;6.00;;
19030;SDS011;9648;51.130;13.978;2022-09-17T08:50:15;11.50;;;5.50;;
19030;SDS011;9648;51.130;13.978;2022-09-17T08:55:50;12.65;;;6.47;;
19030;SDS011;9648;51.130;13.978;2022-09-17T08:58:28;11.85;;;6.30;;
19030;SDS011;9648;51.130;13.978;2022-09-17T09:01:07;12.77;;;5.60;;
19030;SDS011;9648;51.130;13.978;2022-09-17T09:03:46;12.23;;;5.07;;
19030;SDS011;9648;51.130;13.978;2022-09-17T09:06:26;15.05;;;5.28;;
19030;SDS011;9648;51.130;13.978;2022-09-17T09:08:58;15.10;;;5.18;;
19030;SDS011;9648;51.130;13.978;2022-09-17T09:11:28;16.93;;;5.10;;
19030;SDS011;9648;51.130;13.978;2022-09-17T09:13:57;12.75;;;4.82;;
19030;SDS011;9648;51.130;13.978;2022-09-17T09:16:30;12.90;;;4.72;;
19030;SDS011;9648;51.130;13.978;2022-09-17T09:19:03;11.50;;;3.95;;
19030;SDS011;9648;51.130;13.978;2022-09-17T09:21:45;13.80;;;4.32;;
19030;SDS011;9648;51.130;13.978;2022-09-17T09:24:24;12.18;;;4.22;;
19030;SDS011;9648;51.130;13.978;2022-09-17T09:26:58;9.80;;;3.53;;
19030;SDS011;9648;51.130;13.978;2022-09-17T09:29:32;11.60;;;3.92;;
19030;SDS011;9648;51.130;13.978;2022-09-17T09:32:11;10.48;;;3.50;;
19030;SDS011;9648;51.130;13.978;2022-09-17T09:34:48;14.65;;;3.83;;
19030;SDS011;9648;51.130;13.978;2022-09-17T09:37:17;9.73;;;3.33;;
19030;SDS011;9648;51.130;13.978;2022-09-17T09:39:49;6.77;;;3.17;;
19030;SDS011;9648;51.130;13.978;2022-09-17T09:42:18;11.30;;;3.73;;
19030;SDS011;9648;51.130;13.978;2022-09-17T09:44:55;8.95;;;3.65;;
19030;SDS011;9648;51.130;13.978;2022-09-17T09:47:29;10.55;;;3.63;;
19030;SDS011;9648;51.130;13.978;2022-09-17T09:50:10;12.05;;;3.60;;
19030;SDS011;9648;51.130;13.978;2022-09-17T09:52:56;8.88;;;3.30;;
19030;SDS011;9648;51.130;13.978;2022-09-17T09:55:35;12.07;;;3.08;;
19030;SDS011;9648;51.130;13.978;2022-09-17T09:58:22;9.02;;;2.90;;
19030;SDS011;9648;51.130;13.978;2022-09-17T10:00:52;10.02;;;2.78;;
19030;SDS011;9648;51.130;13.978;2022-09-17T10:03:20;7.43;;;2.43;;
19030;SDS011;9648;51.130;13.978;2022-09-17T10:05:52;8.63;;;2.45;;
19030;SDS011;9648;51.130;13.978;2022-09-17T10:08:21;8.45;;;2.70;;
19030;SDS011;9648;51.130;13.978;2022-09-17T10:10:55;8.43;;;2.47;;
19030;SDS011;9648;51.130;13.978;2022-09-17T10:13:23;8.13;;;2.75;;
19030;SDS011;9648;51.130;13.978;2022-09-17T10:15:51;7.35;;;2.30;;
19030;SDS011;9648;51.130;13.978;2022-09-17T10:18:18;9.68;;;2.90;;
19030;SDS011;9648;51.130;13.978;2022-09-17T10:23:43;7.63;;;2.63;;
19030;SDS011;9648;51.130;13.978;2022-09-17T10:26:18;6.70;;;2.07;;
19030;SDS011;9648;51.130;13.978;2022-09-17T10:28:47;7.75;;;2.30;;
19030;SDS011;9648;51.130;13.978;2022-09-17T10:31:16;9.43;;;2.00;;
19030;SDS011;9648;51.130;13.978;2022-09-17T10:33:50;3.60;;;1.27;;
19030;SDS011;9648;51.130;13.978;2022-09-17T10:36:38;4.38;;;1.45;;
19030;SDS011;9648;51.130;13.978;2022-09-17T10:39:17;5.25;;;1.40;;
19030;SDS011;9648;51.130;13.978;2022-09-17T10:41:55;5.97;;;1.50;;
19030;SDS011;9648;51.130;13.978;2022-09-17T10:44:23;5.07;;;1.40;;
19030;SDS011;9648;51.130;13.978;2022-09-17T10:46:51;3.92;;;1.70;;
19030;SDS011;9648;51.130;13.978;2022-09-17T10:49:21;3.85;;;1.13;;
19030;SDS011;9648;51.130;13.978;2022-09-17T10:52:09;4.07;;;1.20;;
19030;SDS011;9648;51.130;13.978;2022-09-17T10:54:51;3.83;;;1.15;;
19030;SDS011;9648;51.130;13.978;2022-09-17T10:57:49;5.20;;;1.13;;
19030;SDS011;9648;51.130;13.978;2022-09-17T11:00:27;6.60;;;1.15;;
19030;SDS011;9648;51.130;13.978;2022-09-17T11:03:07;6.63;;;1.48;;
19030;SDS011;9648;51.130;13.978;2022-09-17T11:06:03;4.18;;;1.27;;
19030;SDS011;9648;51.130;13.978;2022-09-17T11:08:51;4.40;;;1.50;;
19030;SDS011;9648;51.130;13.978;2022-09-17T11:11:29;4.05;;;1.65;;
19030;SDS011;9648;51.130;13.978;2022-09-17T11:14:07;3.25;;;1.10;;
19030;SDS011;9648;51.130;13.978;2022-09-17T11:16:45;4.43;;;1.40;;
19030;SDS011;9648;51.130;13.978;2022-09-17T11:19:23;4.40;;;1.20;;
19030;SDS011;9648;51.130;13.978;2022-09-17T11:21:59;5.57;;;1.27;;
19030;SDS011;9648;51.130;13.978;2022-09-17T11:24:42;4.47;;;1.30;;
19030;SDS011;9648;51.130;13.978;2022-09-17T11:30:17;4.47;;;1.20;;
19030;SDS011;9648;51.130;13.978;2022-09-17T11:35:49;5.32;;;1.30;;
19030;SDS011;9648;51.130;13.978;2022-09-17T11:38:21;6.07;;;1.40;;
19030;SDS011;9648;51.130;13.978;2022-09-17T11:40:57;4.57;;;1.30;;
19030;SDS011;9648;51.130;13.978;2022-09-17T11:43:28;6.05;;;1.70;;
19030;SDS011;9648;51.130;13.978;2022-09-17T11:45:59;8.45;;;1.92;;
19030;SDS011;9648;51.130;13.978;2022-09-17T11:48:32;5.82;;;1.92;;
19030;SDS011;9648;51.130;13.978;2022-09-17T11:51:05;11.25;;;3.38;;
19030;SDS011;9648;51.130;13.978;2022-09-17T11:53:41;8.48;;;2.17;;
19030;SDS011;9648;51.130;13.978;2022-09-17T11:56:14;8.00;;;2.10;;
19030;SDS011;9648;51.130;13.978;2022-09-17T11:58:46;8.63;;;2.00;;
19030;SDS011;9648;51.130;13.978;2022-09-17T12:01:19;9.40;;;1.90;;
19030;SDS011;9648;51.130;13.978;2022-09-17T12:03:57;10.40;;;1.90;;
19030;SDS011;9648;51.130;13.978;2022-09-17T12:06:29;7.93;;;1.73;;
19030;SDS011;9648;51.130;13.978;2022-09-17T12:09:02;7.67;;;2.00;;
19030;SDS011;9648;51.130;13.978;2022-09-17T12:11:36;7.13;;;1.90;;
19030;SDS011;9648;51.130;13.978;2022-09-17T12:14:08;8.65;;;1.88;;
19030;SDS011;9648;51.130;13.978;2022-09-17T12:16:42;6.72;;;1.70;;
19030;SDS011;9648;51.130;13.978;2022-09-17T12:19:13;5.20;;;1.50;;
19030;SDS011;9648;51.130;13.978;2022-09-17T12:21:45;10.07;;;2.28;;
19030;SDS011;9648;51.130;13.978;2022-09-17T12:24:16;7.00;;;1.60;;
19030;SDS011;9648;51.130;13.978;2022-09-17T12:26:54;6.32;;;1.48;;
19030;SDS011;9648;51.130;13.978;2022-09-17T12:35:29;5.72;;;1.60;;
19030;SDS011;9648;51.130;13.978;2022-09-17T12:38:14;8.05;;;2.17;;
19030;SDS011;9648;51.130;13.978;2022-09-17T12:40:54;8.18;;;1.95;;
19030;SDS011;9648;51.130;13.978;2022-09-17T12:43:42;8.65;;;2.22;;
19030;SDS011;9648;51.130;13.978;2022-09-17T12:46:19;8.07;;;1.85;;
19030;SDS011;9648;51.130;13.978;2022-09-17T12:49:08;7.43;;;1.80;;
19030;SDS011;9648;51.130;13.978;2022-09-17T12:51:52;7.15;;;1.63;;
19030;SDS011;9648;51.130;13.978;2022-09-17T12:54:26;8.18;;;1.70;;
19030;SDS011;9648;51.130;13.978;2022-09-17T12:57:04;8.35;;;3.42;;
19030;SDS011;9648;51.130;13.978;2022-09-17T12:59:39;10.40;;;2.38;;
19030;SDS011;9648;51.130;13.978;2022-09-17T13:02:14;6.38;;;1.80;;
19030;SDS011;9648;51.130;13.978;2022-09-17T13:11:04;6.47;;;1.70;;
19030;SDS011;9648;51.130;13.978;2022-09-17T13:13:51;6.13;;;1.70;;
19030;SDS011;9648;51.130;13.978;2022-09-17T13:16:22;7.13;;;1.83;;
19030;SDS011;9648;51.130;13.978;2022-09-17T13:18:57;6.22;;;1.95;;
19030;SDS011;9648;51.130;13.978;2022-09-17T13:21:29;7.87;;;2.23;;
19030;SDS011;9648;51.130;13.978;2022-09-17T13:24:12;6.22;;;1.52;;
19030;SDS011;9648;51.130;13.978;2022-09-17T13:26:40;5.78;;;1.90;;
19030;SDS011;9648;51.130;13.978;2022-09-17T13:29:09;6.83;;;2.10;;
19030;SDS011;9648;51.130;13.978;2022-09-17T13:31:48;10.20;;;2.30;;
19030;SDS011;9648;51.130;13.978;2022-09-17T13:34:28;6.30;;;1.80;;
19030;SDS011;9648;51.130;13.978;2022-09-17T13:36:56;6.53;;;1.80;;
19030;SDS011;9648;51.130;13.978;2022-09-17T13:42:14;9.68;;;1.92;;
19030;SDS011;9648;51.130;13.978;2022-09-17T13:44:46;7.70;;;1.75;;
19030;SDS011;9648;51.130;13.978;2022-09-17T13:47:18;5.75;;;1.60;;
19030;SDS011;9648;51.130;13.978;2022-09-17T13:49:48;5.60;;;1.60;;
19030;SDS011;9648;51.130;13.978;2022-09-17T13:52:31;6.28;;;1.60;;
19030;SDS011;9648;51.130;13.978;2022-09-17T13:55:01;8.00;;;1.75;;
19030;SDS011;9648;51.130;13.978;2022-09-17T13:57:29;7.32;;;1.73;;
19030;SDS011;9648;51.130;13.978;2022-09-17T13:59:59;5.60;;;1.90;;
19030;SDS011;9648;51.130;13.978;2022-09-17T14:10:53;6.82;;;1.67;;
19030;SDS011;9648;51.130;13.978;2022-09-17T14:13:25;5.22;;;1.50;;
19030;SDS011;9648;51.130;13.978;2022-09-17T14:16:21;6.47;;;1.73;;
19030;SDS011;9648;51.130;13.978;2022-09-17T14:19:00;7.40;;;1.85;;
19030;SDS011;9648;51.130;13.978;2022-09-17T14:21:38;8.93;;;1.63;;
19030;SDS011;9648;51.130;13.978;2022-09-17T14:24:12;6.82;;;1.90;;
19030;SDS011;9648;51.130;13.978;2022-09-17T14:26:53;6.25;;;1.90;;
19030;SDS011;9648;51.130;13.978;2022-09-17T14:29:32;6.47;;;1.60;;
19030;SDS011;9648;51.130;13.978;2022-09-17T14:32:16;9.40;;;1.75;;
19030;SDS011;9648;51.130;13.978;2022-09-17T14:34:47;7.20;;;1.88;;
19030;SDS011;9648;51.130;13.978;2022-09-17T14:37:15;8.80;;;1.75;;
19030;SDS011;9648;51.130;13.978;2022-09-17T14:39:45;8.90;;;2.00;;
19030;SDS011;9648;51.130;13.978;2022-09-17T14:42:14;8.80;;;2.30;;
19030;SDS011;9648;51.130;13.978;2022-09-17T14:44:46;7.03;;;2.00;;
19030;SDS011;9648;51.130;13.978;2022-09-17T14:47:16;9.52;;;2.50;;
19030;SDS011;9648;51.130;13.978;2022-09-17T14:49:46;8.00;;;2.03;;
19030;SDS011;9648;51.130;13.978;2022-09-17T14:52:22;8.00;;;2.00;;
19030;SDS011;9648;51.130;13.978;2022-09-17T14:55:10;7.97;;;1.73;;
19030;SDS011;9648;51.130;13.978;2022-09-17T14:57:41;7.85;;;1.77;;
19030;SDS011;9648;51.130;13.978;2022-09-17T15:00:14;8.52;;;1.88;;
19030;SDS011;9648;51.130;13.978;2022-09-17T15:02:48;8.20;;;1.92;;
19030;SDS011;9648;51.130;13.978;2022-09-17T15:05:19;5.05;;;1.50;;
19030;SDS011;9648;51.130;13.978;2022-09-17T15:07:48;7.68;;;1.70;;
19030;SDS011;9648;51.130;13.978;2022-09-17T15:10:16;8.20;;;1.90;;
19030;SDS011;9648;51.130;13.978;2022-09-17T15:12:45;12.00;;;2.05;;
19030;SDS011;9648;51.130;13.978;2022-09-17T15:15:16;12.25;;;2.20;;
19030;SDS011;9648;51.130;13.978;2022-09-17T15:17:47;7.40;;;1.80;;
19030;SDS011;9648;51.130;13.978;2022-09-17T15:20:19;9.03;;;2.00;;
19030;SDS011;9648;51.130;13.978;2022-09-17T15:22:50;8.88;;;2.20;;
19030;SDS011;9648;51.130;13.978;2022-09-17T15:25:25;7.78;;;2.20;;
19030;SDS011;9648;51.130;13.978;2022-09-17T15:27:57;8.17;;;2.17;;
19030;SDS011;9648;51.130;13.978;2022-09-17T15:30:26;6.50;;;2.50;;
19030;SDS011;9648;51.130;13.978;2022-09-17T15:32:54;8.40;;;2.30;;
19030;SDS011;9648;51.130;13.978;2022-09-17T15:35:24;7.13;;;2.00;;
19030;SDS011;9648;51.130;13.978;2022-09-17T15:37:54;6.53;;;1.83;;
19030;SDS011;9648;51.130;13.978;2022-09-17T15:40:24;6.63;;;1.67;;
19030;SDS011;9648;51.130;13.978;2022-09-17T15:42:56;7.75;;;1.70;;
19030;SDS011;9648;51.130;13.978;2022-09-17T15:45:30;6.70;;;1.58;;
19030;SDS011;9648;51.130;13.978;2022-09-17T15:48:01;7.22;;;1.50;;
19030;SDS011;9648;51.130;13.978;2022-09-17T15:50:30;6.15;;;1.38;;
19030;SDS011;9648;51.130;13.978;2022-09-17T15:53:12;8.07;;;1.58;;